<?xml version="1.0" encoding="UTF-8" standalone="no" ?>
<gpx xmlns="http://www.topografix.com/GPX/1/1" xmlns:xsi="http://www.w3.org/2001/XMLSchema-instance" xsi:schemaLocation="http://www.topografix.com/GPX/1/1 http://www.topografix.com/GPX/1/1/gpx.xsd" version="1.1" creator="VisuGPX - https://www.visugpx.com">
  <metadata>
    <name>VTT - Crêtes et lacs 35-1500</name>
  </metadata>
  <trk>
    <name><![CDATA[922437-Les Crêtes et les lacs]]></name>
    <trkseg>
      <trkpt lat="48.12599" lon="7.16384">
        <ele>477</ele>
        <time>2019-04-12T10:37:24Z</time>
      </trkpt>
      <trkpt lat="48.12621" lon="7.16364">
        <ele>478</ele>
        <time>2019-04-12T10:38:24Z</time>
      </trkpt>
      <trkpt lat="48.12638" lon="7.1615">
        <ele>485</ele>
        <time>2019-04-12T10:39:24Z</time>
      </trkpt>
      <trkpt lat="48.12618" lon="7.1602">
        <ele>492</ele>
        <time>2019-04-12T10:40:24Z</time>
      </trkpt>
      <trkpt lat="48.12616" lon="7.15892">
        <ele>494</ele>
        <time>2019-04-12T10:41:24Z</time>
      </trkpt>
      <trkpt lat="48.12605" lon="7.1579">
        <ele>498</ele>
        <time>2019-04-12T10:42:24Z</time>
      </trkpt>
      <trkpt lat="48.12603" lon="7.15613">
        <ele>500</ele>
        <time>2019-04-12T10:43:24Z</time>
      </trkpt>
      <trkpt lat="48.12605" lon="7.15443">
        <ele>507</ele>
        <time>2019-04-12T10:44:24Z</time>
      </trkpt>
      <trkpt lat="48.12697" lon="7.15286">
        <ele>517</ele>
        <time>2019-04-12T10:45:24Z</time>
      </trkpt>
      <trkpt lat="48.12709" lon="7.15156">
        <ele>521</ele>
        <time>2019-04-12T10:46:24Z</time>
      </trkpt>
      <trkpt lat="48.12753" lon="7.15085">
        <ele>525</ele>
        <time>2019-04-12T10:47:24Z</time>
      </trkpt>
      <trkpt lat="48.12763" lon="7.15033">
        <ele>528</ele>
        <time>2019-04-12T10:48:24Z</time>
      </trkpt>
      <trkpt lat="48.12803" lon="7.14994">
        <ele>530</ele>
        <time>2019-04-12T10:49:24Z</time>
      </trkpt>
      <trkpt lat="48.12853" lon="7.14898">
        <ele>536</ele>
        <time>2019-04-12T10:50:24Z</time>
      </trkpt>
      <trkpt lat="48.12941" lon="7.14814">
        <ele>557</ele>
        <time>2019-04-12T10:51:24Z</time>
      </trkpt>
      <trkpt lat="48.13029" lon="7.14738">
        <ele>568</ele>
        <time>2019-04-12T10:52:24Z</time>
      </trkpt>
      <trkpt lat="48.1318" lon="7.14644">
        <ele>565</ele>
        <time>2019-04-12T10:53:24Z</time>
      </trkpt>
      <trkpt lat="48.13313" lon="7.14561">
        <ele>575</ele>
        <time>2019-04-12T10:54:24Z</time>
      </trkpt>
      <trkpt lat="48.13374" lon="7.14509">
        <ele>583</ele>
        <time>2019-04-12T10:55:24Z</time>
      </trkpt>
      <trkpt lat="48.13408" lon="7.14509">
        <ele>586</ele>
        <time>2019-04-12T10:56:24Z</time>
      </trkpt>
      <trkpt lat="48.13419" lon="7.14532">
        <ele>587</ele>
        <time>2019-04-12T10:57:24Z</time>
      </trkpt>
      <trkpt lat="48.13426" lon="7.14569">
        <ele>587</ele>
        <time>2019-04-12T10:58:24Z</time>
      </trkpt>
      <trkpt lat="48.1345" lon="7.14621">
        <ele>591</ele>
        <time>2019-04-12T10:59:24Z</time>
      </trkpt>
      <trkpt lat="48.1343" lon="7.14686">
        <ele>597</ele>
        <time>2019-04-12T11:00:24Z</time>
      </trkpt>
      <trkpt lat="48.13464" lon="7.14717">
        <ele>605</ele>
        <time>2019-04-12T11:01:24Z</time>
      </trkpt>
      <trkpt lat="48.13595" lon="7.14804">
        <ele>623</ele>
        <time>2019-04-12T11:02:24Z</time>
      </trkpt>
      <trkpt lat="48.13635" lon="7.14806">
        <ele>629</ele>
        <time>2019-04-12T11:03:24Z</time>
      </trkpt>
      <trkpt lat="48.1364" lon="7.14835">
        <ele>631</ele>
        <time>2019-04-12T11:04:24Z</time>
      </trkpt>
      <trkpt lat="48.13619" lon="7.14861">
        <ele>633</ele>
        <time>2019-04-12T11:05:24Z</time>
      </trkpt>
      <trkpt lat="48.13651" lon="7.149">
        <ele>638</ele>
        <time>2019-04-12T11:06:24Z</time>
      </trkpt>
      <trkpt lat="48.13692" lon="7.14963">
        <ele>643</ele>
        <time>2019-04-12T11:07:24Z</time>
      </trkpt>
      <trkpt lat="48.13723" lon="7.1496">
        <ele>644</ele>
        <time>2019-04-12T11:08:24Z</time>
      </trkpt>
      <trkpt lat="48.1373" lon="7.14869">
        <ele>648</ele>
        <time>2019-04-12T11:09:24Z</time>
      </trkpt>
      <trkpt lat="48.13795" lon="7.14806">
        <ele>659</ele>
        <time>2019-04-12T11:10:24Z</time>
      </trkpt>
      <trkpt lat="48.13854" lon="7.14733">
        <ele>672</ele>
        <time>2019-04-12T11:11:24Z</time>
      </trkpt>
      <trkpt lat="48.13841" lon="7.14621">
        <ele>681</ele>
        <time>2019-04-12T11:12:24Z</time>
      </trkpt>
      <trkpt lat="48.13868" lon="7.14595">
        <ele>689</ele>
        <time>2019-04-12T11:13:24Z</time>
      </trkpt>
      <trkpt lat="48.13883" lon="7.14574">
        <ele>694</ele>
        <time>2019-04-12T11:14:24Z</time>
      </trkpt>
      <trkpt lat="48.13922" lon="7.14558">
        <ele>704</ele>
        <time>2019-04-12T11:15:24Z</time>
      </trkpt>
      <trkpt lat="48.13955" lon="7.14514">
        <ele>714</ele>
        <time>2019-04-12T11:16:24Z</time>
      </trkpt>
      <trkpt lat="48.13902" lon="7.14399">
        <ele>711</ele>
        <time>2019-04-12T11:17:24Z</time>
      </trkpt>
      <trkpt lat="48.13901" lon="7.14295">
        <ele>725</ele>
        <time>2019-04-12T11:18:24Z</time>
      </trkpt>
      <trkpt lat="48.13924" lon="7.14201">
        <ele>741</ele>
        <time>2019-04-12T11:19:24Z</time>
      </trkpt>
      <trkpt lat="48.13924" lon="7.14078">
        <ele>749</ele>
        <time>2019-04-12T11:20:24Z</time>
      </trkpt>
      <trkpt lat="48.13956" lon="7.14034">
        <ele>759</ele>
        <time>2019-04-12T11:21:24Z</time>
      </trkpt>
      <trkpt lat="48.14023" lon="7.13856">
        <ele>770</ele>
        <time>2019-04-12T11:22:24Z</time>
      </trkpt>
      <trkpt lat="48.14012" lon="7.13793">
        <ele>769</ele>
        <time>2019-04-12T11:23:24Z</time>
      </trkpt>
      <trkpt lat="48.14023" lon="7.13713">
        <ele>778</ele>
        <time>2019-04-12T11:24:24Z</time>
      </trkpt>
      <trkpt lat="48.14008" lon="7.13658">
        <ele>779</ele>
        <time>2019-04-12T11:25:24Z</time>
      </trkpt>
      <trkpt lat="48.14028" lon="7.13598">
        <ele>792</ele>
        <time>2019-04-12T11:26:24Z</time>
      </trkpt>
      <trkpt lat="48.1403" lon="7.13553">
        <ele>799</ele>
        <time>2019-04-12T11:27:24Z</time>
      </trkpt>
      <trkpt lat="48.14016" lon="7.13467">
        <ele>808</ele>
        <time>2019-04-12T11:28:24Z</time>
      </trkpt>
      <trkpt lat="48.14014" lon="7.13371">
        <ele>817</ele>
        <time>2019-04-12T11:29:24Z</time>
      </trkpt>
      <trkpt lat="48.14003" lon="7.1329">
        <ele>820</ele>
        <time>2019-04-12T11:30:24Z</time>
      </trkpt>
      <trkpt lat="48.14016" lon="7.13136">
        <ele>840</ele>
        <time>2019-04-12T11:31:24Z</time>
      </trkpt>
      <trkpt lat="48.14035" lon="7.13065">
        <ele>850</ele>
        <time>2019-04-12T11:32:24Z</time>
      </trkpt>
      <trkpt lat="48.1405" lon="7.13031">
        <ele>854</ele>
        <time>2019-04-12T11:33:24Z</time>
      </trkpt>
      <trkpt lat="48.14098" lon="7.12977">
        <ele>863</ele>
        <time>2019-04-12T11:34:24Z</time>
      </trkpt>
      <trkpt lat="48.14167" lon="7.12935">
        <ele>873</ele>
        <time>2019-04-12T11:35:24Z</time>
      </trkpt>
      <trkpt lat="48.14201" lon="7.12911">
        <ele>879</ele>
        <time>2019-04-12T11:36:24Z</time>
      </trkpt>
      <trkpt lat="48.1424" lon="7.12854">
        <ele>885</ele>
        <time>2019-04-12T11:37:24Z</time>
      </trkpt>
      <trkpt lat="48.14269" lon="7.12794">
        <ele>894</ele>
        <time>2019-04-12T11:38:24Z</time>
      </trkpt>
      <trkpt lat="48.14291" lon="7.12702">
        <ele>903</ele>
        <time>2019-04-12T11:39:24Z</time>
      </trkpt>
      <trkpt lat="48.14317" lon="7.12632">
        <ele>913</ele>
        <time>2019-04-12T11:40:24Z</time>
      </trkpt>
      <trkpt lat="48.14355" lon="7.12577">
        <ele>926</ele>
        <time>2019-04-12T11:41:24Z</time>
      </trkpt>
      <trkpt lat="48.14393" lon="7.12504">
        <ele>934</ele>
        <time>2019-04-12T11:42:24Z</time>
      </trkpt>
      <trkpt lat="48.14409" lon="7.12428">
        <ele>939</ele>
        <time>2019-04-12T11:43:24Z</time>
      </trkpt>
      <trkpt lat="48.14411" lon="7.12248">
        <ele>946</ele>
        <time>2019-04-12T11:44:24Z</time>
      </trkpt>
      <trkpt lat="48.14445" lon="7.12102">
        <ele>962</ele>
        <time>2019-04-12T11:45:24Z</time>
      </trkpt>
      <trkpt lat="48.14454" lon="7.11964">
        <ele>976</ele>
        <time>2019-04-12T11:46:24Z</time>
      </trkpt>
      <trkpt lat="48.14467" lon="7.11815">
        <ele>989</ele>
        <time>2019-04-12T11:47:24Z</time>
      </trkpt>
      <trkpt lat="48.14402" lon="7.11873">
        <ele>991</ele>
        <time>2019-04-12T11:48:24Z</time>
      </trkpt>
      <trkpt lat="48.14335" lon="7.11922">
        <ele>996</ele>
        <time>2019-04-12T11:49:24Z</time>
      </trkpt>
      <trkpt lat="48.14312" lon="7.11933">
        <ele>994</ele>
        <time>2019-04-12T11:50:24Z</time>
      </trkpt>
      <trkpt lat="48.14237" lon="7.11933">
        <ele>998</ele>
        <time>2019-04-12T11:51:24Z</time>
      </trkpt>
      <trkpt lat="48.14149" lon="7.11922">
        <ele>1005</ele>
        <time>2019-04-12T11:52:24Z</time>
      </trkpt>
      <trkpt lat="48.14075" lon="7.11927">
        <ele>1009</ele>
        <time>2019-04-12T11:53:24Z</time>
      </trkpt>
      <trkpt lat="48.14053" lon="7.11912">
        <ele>1013</ele>
        <time>2019-04-12T11:54:24Z</time>
      </trkpt>
      <trkpt lat="48.14019" lon="7.11823">
        <ele>1023</ele>
        <time>2019-04-12T11:55:24Z</time>
      </trkpt>
      <trkpt lat="48.13978" lon="7.11726">
        <ele>1027</ele>
        <time>2019-04-12T11:56:24Z</time>
      </trkpt>
      <trkpt lat="48.13985" lon="7.11664">
        <ele>1031</ele>
        <time>2019-04-12T11:57:24Z</time>
      </trkpt>
      <trkpt lat="48.13981" lon="7.11609">
        <ele>1034</ele>
        <time>2019-04-12T11:58:24Z</time>
      </trkpt>
      <trkpt lat="48.13971" lon="7.11531">
        <ele>1039</ele>
        <time>2019-04-12T11:59:24Z</time>
      </trkpt>
      <trkpt lat="48.1394" lon="7.11424">
        <ele>1051</ele>
        <time>2019-04-12T12:00:24Z</time>
      </trkpt>
      <trkpt lat="48.13911" lon="7.1134">
        <ele>1061</ele>
        <time>2019-04-12T12:01:24Z</time>
      </trkpt>
      <trkpt lat="48.13875" lon="7.11264">
        <ele>1068</ele>
        <time>2019-04-12T12:02:24Z</time>
      </trkpt>
      <trkpt lat="48.13823" lon="7.11157">
        <ele>1072</ele>
        <time>2019-04-12T12:03:24Z</time>
      </trkpt>
      <trkpt lat="48.13814" lon="7.11037">
        <ele>1086</ele>
        <time>2019-04-12T12:04:24Z</time>
      </trkpt>
      <trkpt lat="48.13782" lon="7.10808">
        <ele>1101</ele>
        <time>2019-04-12T12:05:24Z</time>
      </trkpt>
      <trkpt lat="48.13795" lon="7.10445">
        <ele>1127</ele>
        <time>2019-04-12T12:06:24Z</time>
      </trkpt>
      <trkpt lat="48.13811" lon="7.10293">
        <ele>1139</ele>
        <time>2019-04-12T12:07:24Z</time>
      </trkpt>
      <trkpt lat="48.13802" lon="7.10223">
        <ele>1142</ele>
        <time>2019-04-12T12:08:24Z</time>
      </trkpt>
      <trkpt lat="48.13782" lon="7.10142">
        <ele>1145</ele>
        <time>2019-04-12T12:09:24Z</time>
      </trkpt>
      <trkpt lat="48.13768" lon="7.10032">
        <ele>1147</ele>
        <time>2019-04-12T12:10:24Z</time>
      </trkpt>
      <trkpt lat="48.13663" lon="7.09764">
        <ele>1148</ele>
        <time>2019-04-12T12:11:24Z</time>
      </trkpt>
      <trkpt lat="48.13631" lon="7.09672">
        <ele>1147</ele>
        <time>2019-04-12T12:12:24Z</time>
      </trkpt>
      <trkpt lat="48.13615" lon="7.09573">
        <ele>1148</ele>
        <time>2019-04-12T12:13:24Z</time>
      </trkpt>
      <trkpt lat="48.1361" lon="7.09474">
        <ele>1147</ele>
        <time>2019-04-12T12:14:24Z</time>
      </trkpt>
      <trkpt lat="48.13637" lon="7.0933">
        <ele>1148</ele>
        <time>2019-04-12T12:15:24Z</time>
      </trkpt>
      <trkpt lat="48.13633" lon="7.08861">
        <ele>1147</ele>
        <time>2019-04-12T12:16:24Z</time>
      </trkpt>
      <trkpt lat="48.13619" lon="7.08829">
        <ele>1148</ele>
        <time>2019-04-12T12:17:24Z</time>
      </trkpt>
      <trkpt lat="48.13552" lon="7.08761">
        <ele>1159</ele>
        <time>2019-04-12T12:18:24Z</time>
      </trkpt>
      <trkpt lat="48.13505" lon="7.08701">
        <ele>1168</ele>
        <time>2019-04-12T12:19:24Z</time>
      </trkpt>
      <trkpt lat="48.13446" lon="7.08631">
        <ele>1178</ele>
        <time>2019-04-12T12:20:24Z</time>
      </trkpt>
      <trkpt lat="48.13381" lon="7.08547">
        <ele>1189</ele>
        <time>2019-04-12T12:21:24Z</time>
      </trkpt>
      <trkpt lat="48.13319" lon="7.08469">
        <ele>1198</ele>
        <time>2019-04-12T12:22:24Z</time>
      </trkpt>
      <trkpt lat="48.13268" lon="7.08404">
        <ele>1205</ele>
        <time>2019-04-12T12:23:24Z</time>
      </trkpt>
      <trkpt lat="48.13207" lon="7.08404">
        <ele>1213</ele>
        <time>2019-04-12T12:24:24Z</time>
      </trkpt>
      <trkpt lat="48.13157" lon="7.08414">
        <ele>1220</ele>
        <time>2019-04-12T12:25:24Z</time>
      </trkpt>
      <trkpt lat="48.13063" lon="7.08422">
        <ele>1229</ele>
        <time>2019-04-12T12:26:24Z</time>
      </trkpt>
      <trkpt lat="48.12983" lon="7.08414">
        <ele>1236</ele>
        <time>2019-04-12T12:27:24Z</time>
      </trkpt>
      <trkpt lat="48.12934" lon="7.08417">
        <ele>1234</ele>
        <time>2019-04-12T12:28:24Z</time>
      </trkpt>
      <trkpt lat="48.12808" lon="7.08425">
        <ele>1236</ele>
        <time>2019-04-12T12:29:24Z</time>
      </trkpt>
      <trkpt lat="48.12675" lon="7.08435">
        <ele>1240</ele>
        <time>2019-04-12T12:30:24Z</time>
      </trkpt>
      <trkpt lat="48.12591" lon="7.08438">
        <ele>1246</ele>
        <time>2019-04-12T12:31:24Z</time>
      </trkpt>
      <trkpt lat="48.12523" lon="7.08435">
        <ele>1249</ele>
        <time>2019-04-12T12:32:24Z</time>
      </trkpt>
      <trkpt lat="48.12442" lon="7.08419">
        <ele>1261</ele>
        <time>2019-04-12T12:33:24Z</time>
      </trkpt>
      <trkpt lat="48.12365" lon="7.08406">
        <ele>1270</ele>
        <time>2019-04-12T12:34:24Z</time>
      </trkpt>
      <trkpt lat="48.12294" lon="7.08391">
        <ele>1276</ele>
        <time>2019-04-12T12:35:24Z</time>
      </trkpt>
      <trkpt lat="48.12228" lon="7.0838">
        <ele>1282</ele>
        <time>2019-04-12T12:36:24Z</time>
      </trkpt>
      <trkpt lat="48.12165" lon="7.08349">
        <ele>1288</ele>
        <time>2019-04-12T12:37:24Z</time>
      </trkpt>
      <trkpt lat="48.12108" lon="7.08325">
        <ele>1291</ele>
        <time>2019-04-12T12:38:24Z</time>
      </trkpt>
      <trkpt lat="48.12032" lon="7.08292">
        <ele>1295</ele>
        <time>2019-04-12T12:39:24Z</time>
      </trkpt>
      <trkpt lat="48.11966" lon="7.0826">
        <ele>1297</ele>
        <time>2019-04-12T12:40:24Z</time>
      </trkpt>
      <trkpt lat="48.11856" lon="7.08203">
        <ele>1298</ele>
        <time>2019-04-12T12:41:24Z</time>
      </trkpt>
      <trkpt lat="48.11716" lon="7.08127">
        <ele>1297</ele>
        <time>2019-04-12T12:42:24Z</time>
      </trkpt>
      <trkpt lat="48.11578" lon="7.08049">
        <ele>1295</ele>
        <time>2019-04-12T12:43:24Z</time>
      </trkpt>
      <trkpt lat="48.11472" lon="7.07991">
        <ele>1298</ele>
        <time>2019-04-12T12:44:24Z</time>
      </trkpt>
      <trkpt lat="48.1136" lon="7.07929">
        <ele>1302</ele>
        <time>2019-04-12T12:45:24Z</time>
      </trkpt>
      <trkpt lat="48.11281" lon="7.07892">
        <ele>1300</ele>
        <time>2019-04-12T12:46:24Z</time>
      </trkpt>
      <trkpt lat="48.11199" lon="7.07845">
        <ele>1293</ele>
        <time>2019-04-12T12:47:24Z</time>
      </trkpt>
      <trkpt lat="48.11105" lon="7.07796">
        <ele>1289</ele>
        <time>2019-04-12T12:48:24Z</time>
      </trkpt>
      <trkpt lat="48.11028" lon="7.07754">
        <ele>1289</ele>
        <time>2019-04-12T12:49:24Z</time>
      </trkpt>
      <trkpt lat="48.10866" lon="7.07678">
        <ele>1296</ele>
        <time>2019-04-12T12:50:24Z</time>
      </trkpt>
      <trkpt lat="48.1085" lon="7.07501">
        <ele>1283</ele>
        <time>2019-04-12T12:51:24Z</time>
      </trkpt>
      <trkpt lat="48.10834" lon="7.07331">
        <ele>1272</ele>
        <time>2019-04-12T12:52:24Z</time>
      </trkpt>
      <trkpt lat="48.10809" lon="7.07221">
        <ele>1270</ele>
        <time>2019-04-12T12:53:24Z</time>
      </trkpt>
      <trkpt lat="48.10783" lon="7.07156">
        <ele>1279</ele>
        <time>2019-04-12T12:54:24Z</time>
      </trkpt>
      <trkpt lat="48.10744" lon="7.07114">
        <ele>1282</ele>
        <time>2019-04-12T12:55:24Z</time>
      </trkpt>
      <trkpt lat="48.10681" lon="7.0707">
        <ele>1283</ele>
        <time>2019-04-12T12:56:24Z</time>
      </trkpt>
      <trkpt lat="48.10615" lon="7.07018">
        <ele>1280</ele>
        <time>2019-04-12T12:57:24Z</time>
      </trkpt>
      <trkpt lat="48.10557" lon="7.06966">
        <ele>1276</ele>
        <time>2019-04-12T12:58:24Z</time>
      </trkpt>
      <trkpt lat="48.10489" lon="7.069">
        <ele>1277</ele>
        <time>2019-04-12T12:59:24Z</time>
      </trkpt>
      <trkpt lat="48.10431" lon="7.06843">
        <ele>1278</ele>
        <time>2019-04-12T13:00:24Z</time>
      </trkpt>
      <trkpt lat="48.10358" lon="7.06825">
        <ele>1282</ele>
        <time>2019-04-12T13:01:24Z</time>
      </trkpt>
      <trkpt lat="48.10298" lon="7.0683">
        <ele>1288</ele>
        <time>2019-04-12T13:02:24Z</time>
      </trkpt>
      <trkpt lat="48.1025" lon="7.06843">
        <ele>1290</ele>
        <time>2019-04-12T13:03:24Z</time>
      </trkpt>
      <trkpt lat="48.10205" lon="7.06819">
        <ele>1291</ele>
        <time>2019-04-12T13:04:24Z</time>
      </trkpt>
      <trkpt lat="48.10126" lon="7.06762">
        <ele>1295</ele>
        <time>2019-04-12T13:05:24Z</time>
      </trkpt>
      <trkpt lat="48.10085" lon="7.06733">
        <ele>1297</ele>
        <time>2019-04-12T13:06:24Z</time>
      </trkpt>
      <trkpt lat="48.10027" lon="7.06655">
        <ele>1293</ele>
        <time>2019-04-12T13:07:24Z</time>
      </trkpt>
      <trkpt lat="48.09946" lon="7.06553">
        <ele>1293</ele>
        <time>2019-04-12T13:08:24Z</time>
      </trkpt>
      <trkpt lat="48.09876" lon="7.06491">
        <ele>1296</ele>
        <time>2019-04-12T13:09:24Z</time>
      </trkpt>
      <trkpt lat="48.09776" lon="7.06402">
        <ele>1286</ele>
        <time>2019-04-12T13:10:24Z</time>
      </trkpt>
      <trkpt lat="48.09704" lon="7.06339">
        <ele>1274</ele>
        <time>2019-04-12T13:11:24Z</time>
      </trkpt>
      <trkpt lat="48.09617" lon="7.06297">
        <ele>1258</ele>
        <time>2019-04-12T13:12:24Z</time>
      </trkpt>
      <trkpt lat="48.09531" lon="7.0624">
        <ele>1243</ele>
        <time>2019-04-12T13:13:24Z</time>
      </trkpt>
      <trkpt lat="48.09443" lon="7.0619">
        <ele>1232</ele>
        <time>2019-04-12T13:14:24Z</time>
      </trkpt>
      <trkpt lat="48.09395" lon="7.06159">
        <ele>1228</ele>
        <time>2019-04-12T13:15:24Z</time>
      </trkpt>
      <trkpt lat="48.09335" lon="7.06128">
        <ele>1227</ele>
        <time>2019-04-12T13:16:24Z</time>
      </trkpt>
      <trkpt lat="48.09283" lon="7.06065">
        <ele>1229</ele>
        <time>2019-04-12T13:17:24Z</time>
      </trkpt>
      <trkpt lat="48.09238" lon="7.06023">
        <ele>1230</ele>
        <time>2019-04-12T13:18:24Z</time>
      </trkpt>
      <trkpt lat="48.09177" lon="7.05961">
        <ele>1229</ele>
        <time>2019-04-12T13:19:24Z</time>
      </trkpt>
      <trkpt lat="48.09132" lon="7.05914">
        <ele>1224</ele>
        <time>2019-04-12T13:20:24Z</time>
      </trkpt>
      <trkpt lat="48.09091" lon="7.05867">
        <ele>1222</ele>
        <time>2019-04-12T13:21:24Z</time>
      </trkpt>
      <trkpt lat="48.09052" lon="7.05846">
        <ele>1223</ele>
        <time>2019-04-12T13:22:24Z</time>
      </trkpt>
      <trkpt lat="48.08972" lon="7.05804">
        <ele>1230</ele>
        <time>2019-04-12T13:23:24Z</time>
      </trkpt>
      <trkpt lat="48.08884" lon="7.05742">
        <ele>1240</ele>
        <time>2019-04-12T13:24:24Z</time>
      </trkpt>
      <trkpt lat="48.08818" lon="7.05687">
        <ele>1237</ele>
        <time>2019-04-12T13:25:24Z</time>
      </trkpt>
      <trkpt lat="48.0876" lon="7.05629">
        <ele>1238</ele>
        <time>2019-04-12T13:26:24Z</time>
      </trkpt>
      <trkpt lat="48.08725" lon="7.05588">
        <ele>1234</ele>
        <time>2019-04-12T13:27:24Z</time>
      </trkpt>
      <trkpt lat="48.08721" lon="7.05522">
        <ele>1227</ele>
        <time>2019-04-12T13:28:24Z</time>
      </trkpt>
      <trkpt lat="48.08734" lon="7.05434">
        <ele>1223</ele>
        <time>2019-04-12T13:29:24Z</time>
      </trkpt>
      <trkpt lat="48.08696" lon="7.05368">
        <ele>1223</ele>
        <time>2019-04-12T13:30:24Z</time>
      </trkpt>
      <trkpt lat="48.08674" lon="7.05324">
        <ele>1230</ele>
        <time>2019-04-12T13:31:24Z</time>
      </trkpt>
      <trkpt lat="48.08633" lon="7.05295">
        <ele>1234</ele>
        <time>2019-04-12T13:32:24Z</time>
      </trkpt>
      <trkpt lat="48.08579" lon="7.05238">
        <ele>1250</ele>
        <time>2019-04-12T13:33:24Z</time>
      </trkpt>
      <trkpt lat="48.08531" lon="7.0522">
        <ele>1257</ele>
        <time>2019-04-12T13:34:24Z</time>
      </trkpt>
      <trkpt lat="48.08482" lon="7.05233">
        <ele>1261</ele>
        <time>2019-04-12T13:35:24Z</time>
      </trkpt>
      <trkpt lat="48.08435" lon="7.05217">
        <ele>1272</ele>
        <time>2019-04-12T13:36:24Z</time>
      </trkpt>
      <trkpt lat="48.0838" lon="7.05217">
        <ele>1275</ele>
        <time>2019-04-12T13:37:24Z</time>
      </trkpt>
      <trkpt lat="48.08342" lon="7.05209">
        <ele>1276</ele>
        <time>2019-04-12T13:38:24Z</time>
      </trkpt>
      <trkpt lat="48.08304" lon="7.05183">
        <ele>1274</ele>
        <time>2019-04-12T13:39:24Z</time>
      </trkpt>
      <trkpt lat="48.08281" lon="7.05167">
        <ele>1272</ele>
        <time>2019-04-12T13:40:24Z</time>
      </trkpt>
      <trkpt lat="48.08245" lon="7.0512">
        <ele>1265</ele>
        <time>2019-04-12T13:41:24Z</time>
      </trkpt>
      <trkpt lat="48.08218" lon="7.05086">
        <ele>1262</ele>
        <time>2019-04-12T13:42:24Z</time>
      </trkpt>
      <trkpt lat="48.08173" lon="7.05026">
        <ele>1260</ele>
        <time>2019-04-12T13:43:24Z</time>
      </trkpt>
      <trkpt lat="48.08151" lon="7.04995">
        <ele>1261</ele>
        <time>2019-04-12T13:44:24Z</time>
      </trkpt>
      <trkpt lat="48.08135" lon="7.04943">
        <ele>1263</ele>
        <time>2019-04-12T13:45:24Z</time>
      </trkpt>
      <trkpt lat="48.08103" lon="7.04893">
        <ele>1266</ele>
        <time>2019-04-12T13:46:24Z</time>
      </trkpt>
      <trkpt lat="48.08053" lon="7.04818">
        <ele>1270</ele>
        <time>2019-04-12T13:47:24Z</time>
      </trkpt>
      <trkpt lat="48.0802" lon="7.04742">
        <ele>1275</ele>
        <time>2019-04-12T13:48:24Z</time>
      </trkpt>
      <trkpt lat="48.07988" lon="7.04643">
        <ele>1278</ele>
        <time>2019-04-12T13:49:24Z</time>
      </trkpt>
      <trkpt lat="48.07948" lon="7.0453">
        <ele>1272</ele>
        <time>2019-04-12T13:50:24Z</time>
      </trkpt>
      <trkpt lat="48.07957" lon="7.04439">
        <ele>1268</ele>
        <time>2019-04-12T13:51:24Z</time>
      </trkpt>
      <trkpt lat="48.07939" lon="7.04256">
        <ele>1262</ele>
        <time>2019-04-12T13:52:24Z</time>
      </trkpt>
      <trkpt lat="48.07923" lon="7.04134">
        <ele>1260</ele>
        <time>2019-04-12T13:53:24Z</time>
      </trkpt>
      <trkpt lat="48.07907" lon="7.03972">
        <ele>1255</ele>
        <time>2019-04-12T13:54:24Z</time>
      </trkpt>
      <trkpt lat="48.0786" lon="7.0387">
        <ele>1248</ele>
        <time>2019-04-12T13:55:24Z</time>
      </trkpt>
      <trkpt lat="48.07828" lon="7.03787">
        <ele>1251</ele>
        <time>2019-04-12T13:56:24Z</time>
      </trkpt>
      <trkpt lat="48.07808" lon="7.03724">
        <ele>1253</ele>
        <time>2019-04-12T13:57:24Z</time>
      </trkpt>
      <trkpt lat="48.07735" lon="7.03653">
        <ele>1262</ele>
        <time>2019-04-12T13:58:24Z</time>
      </trkpt>
      <trkpt lat="48.07663" lon="7.0363">
        <ele>1255</ele>
        <time>2019-04-12T13:59:24Z</time>
      </trkpt>
      <trkpt lat="48.07663" lon="7.03588">
        <ele>1264</ele>
        <time>2019-04-12T14:00:24Z</time>
      </trkpt>
      <trkpt lat="48.07605" lon="7.03513">
        <ele>1262</ele>
        <time>2019-04-12T14:01:24Z</time>
      </trkpt>
      <trkpt lat="48.07553" lon="7.03442">
        <ele>1261</ele>
        <time>2019-04-12T14:02:24Z</time>
      </trkpt>
      <trkpt lat="48.0749" lon="7.03314">
        <ele>1245</ele>
        <time>2019-04-12T14:03:24Z</time>
      </trkpt>
      <trkpt lat="48.07429" lon="7.03207">
        <ele>1233</ele>
        <time>2019-04-12T14:04:24Z</time>
      </trkpt>
      <trkpt lat="48.0737" lon="7.0315">
        <ele>1229</ele>
        <time>2019-04-12T14:05:24Z</time>
      </trkpt>
      <trkpt lat="48.07291" lon="7.03058">
        <ele>1240</ele>
        <time>2019-04-12T14:06:24Z</time>
      </trkpt>
      <trkpt lat="48.07199" lon="7.02977">
        <ele>1249</ele>
        <time>2019-04-12T14:07:24Z</time>
      </trkpt>
      <trkpt lat="48.06969" lon="7.02975">
        <ele>1254</ele>
        <time>2019-04-12T14:08:24Z</time>
      </trkpt>
      <trkpt lat="48.0684" lon="7.02983">
        <ele>1252</ele>
        <time>2019-04-12T14:09:24Z</time>
      </trkpt>
      <trkpt lat="48.0661" lon="7.02988">
        <ele>1247</ele>
        <time>2019-04-12T14:10:24Z</time>
      </trkpt>
      <trkpt lat="48.06581" lon="7.02873">
        <ele>1238</ele>
        <time>2019-04-12T14:11:24Z</time>
      </trkpt>
      <trkpt lat="48.06561" lon="7.02902">
        <ele>1230</ele>
        <time>2019-04-12T14:12:24Z</time>
      </trkpt>
      <trkpt lat="48.06561" lon="7.02938">
        <ele>1232</ele>
        <time>2019-04-12T14:13:24Z</time>
      </trkpt>
      <trkpt lat="48.06545" lon="7.02912">
        <ele>1222</ele>
        <time>2019-04-12T14:14:24Z</time>
      </trkpt>
      <trkpt lat="48.06543" lon="7.03079">
        <ele>1222</ele>
        <time>2019-04-12T14:15:24Z</time>
      </trkpt>
      <trkpt lat="48.06587" lon="7.03113">
        <ele>1227</ele>
        <time>2019-04-12T14:16:24Z</time>
      </trkpt>
      <trkpt lat="48.0652" lon="7.03194">
        <ele>1201</ele>
        <time>2019-04-12T14:17:24Z</time>
      </trkpt>
      <trkpt lat="48.06569" lon="7.03163">
        <ele>1212</ele>
        <time>2019-04-12T14:18:24Z</time>
      </trkpt>
      <trkpt lat="48.06513" lon="7.03262">
        <ele>1191</ele>
        <time>2019-04-12T14:19:24Z</time>
      </trkpt>
      <trkpt lat="48.06493" lon="7.03338">
        <ele>1176</ele>
        <time>2019-04-12T14:20:24Z</time>
      </trkpt>
      <trkpt lat="48.06587" lon="7.03257">
        <ele>1182</ele>
        <time>2019-04-12T14:21:24Z</time>
      </trkpt>
      <trkpt lat="48.06628" lon="7.03249">
        <ele>1174</ele>
        <time>2019-04-12T14:22:24Z</time>
      </trkpt>
      <trkpt lat="48.067" lon="7.03126">
        <ele>1203</ele>
        <time>2019-04-12T14:23:24Z</time>
      </trkpt>
      <trkpt lat="48.06847" lon="7.03066">
        <ele>1229</ele>
        <time>2019-04-12T14:24:24Z</time>
      </trkpt>
      <trkpt lat="48.06924" lon="7.03116">
        <ele>1226</ele>
        <time>2019-04-12T14:25:24Z</time>
      </trkpt>
      <trkpt lat="48.06966" lon="7.03116">
        <ele>1219</ele>
        <time>2019-04-12T14:26:24Z</time>
      </trkpt>
      <trkpt lat="48.06996" lon="7.03186">
        <ele>1196</ele>
        <time>2019-04-12T14:27:24Z</time>
      </trkpt>
      <trkpt lat="48.07047" lon="7.03158">
        <ele>1192</ele>
        <time>2019-04-12T14:28:24Z</time>
      </trkpt>
      <trkpt lat="48.07041" lon="7.03186">
        <ele>1187</ele>
        <time>2019-04-12T14:29:24Z</time>
      </trkpt>
      <trkpt lat="48.07061" lon="7.03207">
        <ele>1180</ele>
        <time>2019-04-12T14:30:24Z</time>
      </trkpt>
      <trkpt lat="48.07041" lon="7.03231">
        <ele>1180</ele>
        <time>2019-04-12T14:31:24Z</time>
      </trkpt>
      <trkpt lat="48.07034" lon="7.03309">
        <ele>1162</ele>
        <time>2019-04-12T14:32:24Z</time>
      </trkpt>
      <trkpt lat="48.06998" lon="7.03312">
        <ele>1164</ele>
        <time>2019-04-12T14:33:24Z</time>
      </trkpt>
      <trkpt lat="48.07029" lon="7.03369">
        <ele>1147</ele>
        <time>2019-04-12T14:34:24Z</time>
      </trkpt>
      <trkpt lat="48.07138" lon="7.03322">
        <ele>1144</ele>
        <time>2019-04-12T14:35:24Z</time>
      </trkpt>
      <trkpt lat="48.07192" lon="7.03267">
        <ele>1157</ele>
        <time>2019-04-12T14:36:24Z</time>
      </trkpt>
      <trkpt lat="48.07223" lon="7.03353">
        <ele>1140</ele>
        <time>2019-04-12T14:37:24Z</time>
      </trkpt>
      <trkpt lat="48.07241" lon="7.03398">
        <ele>1138</ele>
        <time>2019-04-12T14:38:24Z</time>
      </trkpt>
      <trkpt lat="48.07248" lon="7.03539">
        <ele>1133</ele>
        <time>2019-04-12T14:39:24Z</time>
      </trkpt>
      <trkpt lat="48.07235" lon="7.03599">
        <ele>1126</ele>
        <time>2019-04-12T14:40:24Z</time>
      </trkpt>
      <trkpt lat="48.07212" lon="7.03643">
        <ele>1117</ele>
        <time>2019-04-12T14:41:24Z</time>
      </trkpt>
      <trkpt lat="48.07197" lon="7.03729">
        <ele>1113</ele>
        <time>2019-04-12T14:42:24Z</time>
      </trkpt>
      <trkpt lat="48.0717" lon="7.03805">
        <ele>1101</ele>
        <time>2019-04-12T14:43:24Z</time>
      </trkpt>
      <trkpt lat="48.07188" lon="7.03881">
        <ele>1106</ele>
        <time>2019-04-12T14:44:24Z</time>
      </trkpt>
      <trkpt lat="48.07188" lon="7.03917">
        <ele>1104</ele>
        <time>2019-04-12T14:45:24Z</time>
      </trkpt>
      <trkpt lat="48.07341" lon="7.04035">
        <ele>1102</ele>
        <time>2019-04-12T14:46:24Z</time>
      </trkpt>
      <trkpt lat="48.07373" lon="7.04105">
        <ele>1097</ele>
        <time>2019-04-12T14:47:24Z</time>
      </trkpt>
      <trkpt lat="48.07444" lon="7.04118">
        <ele>1108</ele>
        <time>2019-04-12T14:48:24Z</time>
      </trkpt>
      <trkpt lat="48.07474" lon="7.04105">
        <ele>1111</ele>
        <time>2019-04-12T14:49:24Z</time>
      </trkpt>
      <trkpt lat="48.07517" lon="7.04134">
        <ele>1113</ele>
        <time>2019-04-12T14:50:24Z</time>
      </trkpt>
      <trkpt lat="48.07555" lon="7.04134">
        <ele>1120</ele>
        <time>2019-04-12T14:51:24Z</time>
      </trkpt>
      <trkpt lat="48.07596" lon="7.04217">
        <ele>1124</ele>
        <time>2019-04-12T14:52:24Z</time>
      </trkpt>
      <trkpt lat="48.07647" lon="7.04306">
        <ele>1144</ele>
        <time>2019-04-12T14:53:24Z</time>
      </trkpt>
      <trkpt lat="48.07634" lon="7.04418">
        <ele>1144</ele>
        <time>2019-04-12T14:54:24Z</time>
      </trkpt>
      <trkpt lat="48.07612" lon="7.04593">
        <ele>1147</ele>
        <time>2019-04-12T14:55:24Z</time>
      </trkpt>
      <trkpt lat="48.07609" lon="7.04684">
        <ele>1153</ele>
        <time>2019-04-12T14:56:24Z</time>
      </trkpt>
      <trkpt lat="48.07629" lon="7.04805">
        <ele>1160</ele>
        <time>2019-04-12T14:57:24Z</time>
      </trkpt>
      <trkpt lat="48.07657" lon="7.04925">
        <ele>1165</ele>
        <time>2019-04-12T14:58:24Z</time>
      </trkpt>
      <trkpt lat="48.07683" lon="7.05003">
        <ele>1168</ele>
        <time>2019-04-12T14:59:24Z</time>
      </trkpt>
      <trkpt lat="48.07762" lon="7.05097">
        <ele>1178</ele>
        <time>2019-04-12T15:00:24Z</time>
      </trkpt>
      <trkpt lat="48.07805" lon="7.05115">
        <ele>1184</ele>
        <time>2019-04-12T15:01:24Z</time>
      </trkpt>
      <trkpt lat="48.07841" lon="7.05214">
        <ele>1178</ele>
        <time>2019-04-12T15:02:24Z</time>
      </trkpt>
      <trkpt lat="48.07833" lon="7.05347">
        <ele>1168</ele>
        <time>2019-04-12T15:03:24Z</time>
      </trkpt>
      <trkpt lat="48.07864" lon="7.05449">
        <ele>1164</ele>
        <time>2019-04-12T15:04:24Z</time>
      </trkpt>
      <trkpt lat="48.07893" lon="7.05556">
        <ele>1154</ele>
        <time>2019-04-12T15:05:24Z</time>
      </trkpt>
      <trkpt lat="48.07921" lon="7.05661">
        <ele>1144</ele>
        <time>2019-04-12T15:06:24Z</time>
      </trkpt>
      <trkpt lat="48.07939" lon="7.05747">
        <ele>1133</ele>
        <time>2019-04-12T15:07:24Z</time>
      </trkpt>
      <trkpt lat="48.07981" lon="7.05822">
        <ele>1127</ele>
        <time>2019-04-12T15:08:24Z</time>
      </trkpt>
      <trkpt lat="48.08033" lon="7.0582">
        <ele>1122</ele>
        <time>2019-04-12T15:09:24Z</time>
      </trkpt>
      <trkpt lat="48.08069" lon="7.0582">
        <ele>1114</ele>
        <time>2019-04-12T15:10:24Z</time>
      </trkpt>
      <trkpt lat="48.08123" lon="7.05822">
        <ele>1103</ele>
        <time>2019-04-12T15:11:24Z</time>
      </trkpt>
      <trkpt lat="48.08159" lon="7.05833">
        <ele>1094</ele>
        <time>2019-04-12T15:12:24Z</time>
      </trkpt>
      <trkpt lat="48.08236" lon="7.05817">
        <ele>1082</ele>
        <time>2019-04-12T15:13:24Z</time>
      </trkpt>
      <trkpt lat="48.08297" lon="7.05825">
        <ele>1076</ele>
        <time>2019-04-12T15:14:24Z</time>
      </trkpt>
      <trkpt lat="48.08345" lon="7.05849">
        <ele>1074</ele>
        <time>2019-04-12T15:15:24Z</time>
      </trkpt>
      <trkpt lat="48.08367" lon="7.05903">
        <ele>1072</ele>
        <time>2019-04-12T15:16:24Z</time>
      </trkpt>
      <trkpt lat="48.08392" lon="7.05966">
        <ele>1071</ele>
        <time>2019-04-12T15:17:24Z</time>
      </trkpt>
      <trkpt lat="48.0841" lon="7.05961">
        <ele>1076</ele>
        <time>2019-04-12T15:18:24Z</time>
      </trkpt>
      <trkpt lat="48.08432" lon="7.05984">
        <ele>1075</ele>
        <time>2019-04-12T15:19:24Z</time>
      </trkpt>
      <trkpt lat="48.08495" lon="7.05976">
        <ele>1079</ele>
        <time>2019-04-12T15:20:24Z</time>
      </trkpt>
      <trkpt lat="48.08532" lon="7.06">
        <ele>1083</ele>
        <time>2019-04-12T15:21:24Z</time>
      </trkpt>
      <trkpt lat="48.0854" lon="7.06065">
        <ele>1076</ele>
        <time>2019-04-12T15:22:24Z</time>
      </trkpt>
      <trkpt lat="48.08547" lon="7.06112">
        <ele>1071</ele>
        <time>2019-04-12T15:23:24Z</time>
      </trkpt>
      <trkpt lat="48.08588" lon="7.06167">
        <ele>1072</ele>
        <time>2019-04-12T15:24:24Z</time>
      </trkpt>
      <trkpt lat="48.08604" lon="7.06266">
        <ele>1062</ele>
        <time>2019-04-12T15:25:24Z</time>
      </trkpt>
      <trkpt lat="48.08613" lon="7.06308">
        <ele>1057</ele>
        <time>2019-04-12T15:26:24Z</time>
      </trkpt>
      <trkpt lat="48.08669" lon="7.06308">
        <ele>1062</ele>
        <time>2019-04-12T15:27:24Z</time>
      </trkpt>
      <trkpt lat="48.08692" lon="7.06326">
        <ele>1057</ele>
        <time>2019-04-12T15:28:24Z</time>
      </trkpt>
      <trkpt lat="48.0871" lon="7.06428">
        <ele>1059</ele>
        <time>2019-04-12T15:29:24Z</time>
      </trkpt>
      <trkpt lat="48.08737" lon="7.06538">
        <ele>1066</ele>
        <time>2019-04-12T15:30:24Z</time>
      </trkpt>
      <trkpt lat="48.08809" lon="7.06608">
        <ele>1076</ele>
        <time>2019-04-12T15:31:24Z</time>
      </trkpt>
      <trkpt lat="48.08766" lon="7.06611">
        <ele>1073</ele>
        <time>2019-04-12T15:32:24Z</time>
      </trkpt>
      <trkpt lat="48.08737" lon="7.06655">
        <ele>1072</ele>
        <time>2019-04-12T15:33:24Z</time>
      </trkpt>
      <trkpt lat="48.08757" lon="7.06712">
        <ele>1074</ele>
        <time>2019-04-12T15:34:24Z</time>
      </trkpt>
      <trkpt lat="48.08825" lon="7.06812">
        <ele>1087</ele>
        <time>2019-04-12T15:35:24Z</time>
      </trkpt>
      <trkpt lat="48.08877" lon="7.06827">
        <ele>1098</ele>
        <time>2019-04-12T15:36:24Z</time>
      </trkpt>
      <trkpt lat="48.08883" lon="7.06882">
        <ele>1100</ele>
        <time>2019-04-12T15:37:24Z</time>
      </trkpt>
      <trkpt lat="48.08913" lon="7.06877">
        <ele>1106</ele>
        <time>2019-04-12T15:38:24Z</time>
      </trkpt>
      <trkpt lat="48.0898" lon="7.06877">
        <ele>1120</ele>
        <time>2019-04-12T15:39:24Z</time>
      </trkpt>
      <trkpt lat="48.09064" lon="7.0689">
        <ele>1138</ele>
        <time>2019-04-12T15:40:24Z</time>
      </trkpt>
      <trkpt lat="48.09125" lon="7.069">
        <ele>1152</ele>
        <time>2019-04-12T15:41:24Z</time>
      </trkpt>
      <trkpt lat="48.09181" lon="7.06919">
        <ele>1161</ele>
        <time>2019-04-12T15:42:24Z</time>
      </trkpt>
      <trkpt lat="48.09202" lon="7.06924">
        <ele>1162</ele>
        <time>2019-04-12T15:43:24Z</time>
      </trkpt>
      <trkpt lat="48.09308" lon="7.06919">
        <ele>1171</ele>
        <time>2019-04-12T15:44:24Z</time>
      </trkpt>
      <trkpt lat="48.09361" lon="7.06981">
        <ele>1158</ele>
        <time>2019-04-12T15:45:24Z</time>
      </trkpt>
      <trkpt lat="48.09393" lon="7.07018">
        <ele>1155</ele>
        <time>2019-04-12T15:46:24Z</time>
      </trkpt>
      <trkpt lat="48.09411" lon="7.0708">
        <ele>1145</ele>
        <time>2019-04-12T15:47:24Z</time>
      </trkpt>
      <trkpt lat="48.09474" lon="7.07216">
        <ele>1140</ele>
        <time>2019-04-12T15:48:24Z</time>
      </trkpt>
      <trkpt lat="48.09522" lon="7.07321">
        <ele>1138</ele>
        <time>2019-04-12T15:49:24Z</time>
      </trkpt>
      <trkpt lat="48.09553" lon="7.07477">
        <ele>1127</ele>
        <time>2019-04-12T15:50:24Z</time>
      </trkpt>
      <trkpt lat="48.09614" lon="7.07542">
        <ele>1133</ele>
        <time>2019-04-12T15:51:24Z</time>
      </trkpt>
      <trkpt lat="48.09695" lon="7.07571">
        <ele>1140</ele>
        <time>2019-04-12T15:52:24Z</time>
      </trkpt>
      <trkpt lat="48.09792" lon="7.07576">
        <ele>1150</ele>
        <time>2019-04-12T15:53:24Z</time>
      </trkpt>
      <trkpt lat="48.09831" lon="7.076">
        <ele>1152</ele>
        <time>2019-04-12T15:54:24Z</time>
      </trkpt>
      <trkpt lat="48.09909" lon="7.07676">
        <ele>1143</ele>
        <time>2019-04-12T15:55:24Z</time>
      </trkpt>
      <trkpt lat="48.10004" lon="7.07717">
        <ele>1133</ele>
        <time>2019-04-12T15:56:24Z</time>
      </trkpt>
      <trkpt lat="48.10099" lon="7.07655">
        <ele>1114</ele>
        <time>2019-04-12T15:57:24Z</time>
      </trkpt>
      <trkpt lat="48.10135" lon="7.07649">
        <ele>1100</ele>
        <time>2019-04-12T15:58:24Z</time>
      </trkpt>
      <trkpt lat="48.10183" lon="7.07657">
        <ele>1084</ele>
        <time>2019-04-12T15:59:24Z</time>
      </trkpt>
      <trkpt lat="48.1021" lon="7.07595">
        <ele>1077</ele>
        <time>2019-04-12T16:00:24Z</time>
      </trkpt>
      <trkpt lat="48.10214" lon="7.07634">
        <ele>1077</ele>
        <time>2019-04-12T16:01:24Z</time>
      </trkpt>
      <trkpt lat="48.10207" lon="7.07736">
        <ele>1078</ele>
        <time>2019-04-12T16:02:24Z</time>
      </trkpt>
      <trkpt lat="48.10209" lon="7.07762">
        <ele>1076</ele>
        <time>2019-04-12T16:03:24Z</time>
      </trkpt>
      <trkpt lat="48.10183" lon="7.0785">
        <ele>1072</ele>
        <time>2019-04-12T16:04:24Z</time>
      </trkpt>
      <trkpt lat="48.10268" lon="7.07924">
        <ele>1071</ele>
        <time>2019-04-12T16:05:24Z</time>
      </trkpt>
      <trkpt lat="48.10273" lon="7.07955">
        <ele>1075</ele>
        <time>2019-04-12T16:06:24Z</time>
      </trkpt>
      <trkpt lat="48.10268" lon="7.07973">
        <ele>1075</ele>
        <time>2019-04-12T16:07:24Z</time>
      </trkpt>
      <trkpt lat="48.10268" lon="7.08038">
        <ele>1082</ele>
        <time>2019-04-12T16:08:24Z</time>
      </trkpt>
      <trkpt lat="48.10252" lon="7.08124">
        <ele>1087</ele>
        <time>2019-04-12T16:09:24Z</time>
      </trkpt>
      <trkpt lat="48.10252" lon="7.08187">
        <ele>1096</ele>
        <time>2019-04-12T16:10:24Z</time>
      </trkpt>
      <trkpt lat="48.10259" lon="7.08315">
        <ele>1102</ele>
        <time>2019-04-12T16:11:24Z</time>
      </trkpt>
      <trkpt lat="48.10264" lon="7.08412">
        <ele>1103</ele>
        <time>2019-04-12T16:12:24Z</time>
      </trkpt>
      <trkpt lat="48.1025" lon="7.0856">
        <ele>1106</ele>
        <time>2019-04-12T16:13:24Z</time>
      </trkpt>
      <trkpt lat="48.10253" lon="7.08683">
        <ele>1112</ele>
        <time>2019-04-12T16:14:24Z</time>
      </trkpt>
      <trkpt lat="48.10245" lon="7.08725">
        <ele>1111</ele>
        <time>2019-04-12T16:15:24Z</time>
      </trkpt>
      <trkpt lat="48.10236" lon="7.08861">
        <ele>1115</ele>
        <time>2019-04-12T16:16:24Z</time>
      </trkpt>
      <trkpt lat="48.10221" lon="7.08996">
        <ele>1113</ele>
        <time>2019-04-12T16:17:24Z</time>
      </trkpt>
      <trkpt lat="48.1021" lon="7.09082">
        <ele>1111</ele>
        <time>2019-04-12T16:18:24Z</time>
      </trkpt>
      <trkpt lat="48.10223" lon="7.09179">
        <ele>1114</ele>
        <time>2019-04-12T16:19:24Z</time>
      </trkpt>
      <trkpt lat="48.10266" lon="7.09262">
        <ele>1117</ele>
        <time>2019-04-12T16:20:24Z</time>
      </trkpt>
      <trkpt lat="48.10315" lon="7.09343">
        <ele>1119</ele>
        <time>2019-04-12T16:21:24Z</time>
      </trkpt>
      <trkpt lat="48.10352" lon="7.09383">
        <ele>1122</ele>
        <time>2019-04-12T16:22:24Z</time>
      </trkpt>
      <trkpt lat="48.1041" lon="7.09356">
        <ele>1132</ele>
        <time>2019-04-12T16:23:24Z</time>
      </trkpt>
      <trkpt lat="48.10507" lon="7.09383">
        <ele>1128</ele>
        <time>2019-04-12T16:24:24Z</time>
      </trkpt>
      <trkpt lat="48.10616" lon="7.09437">
        <ele>1116</ele>
        <time>2019-04-12T16:25:24Z</time>
      </trkpt>
      <trkpt lat="48.10674" lon="7.0944">
        <ele>1111</ele>
        <time>2019-04-12T16:26:24Z</time>
      </trkpt>
      <trkpt lat="48.10794" lon="7.09495">
        <ele>1092</ele>
        <time>2019-04-12T16:27:24Z</time>
      </trkpt>
      <trkpt lat="48.10841" lon="7.09508">
        <ele>1084</ele>
        <time>2019-04-12T16:28:24Z</time>
      </trkpt>
      <trkpt lat="48.10974" lon="7.09409">
        <ele>1069</ele>
        <time>2019-04-12T16:29:24Z</time>
      </trkpt>
      <trkpt lat="48.10965" lon="7.09448">
        <ele>1064</ele>
        <time>2019-04-12T16:30:24Z</time>
      </trkpt>
      <trkpt lat="48.10949" lon="7.09482">
        <ele>1061</ele>
        <time>2019-04-12T16:31:24Z</time>
      </trkpt>
      <trkpt lat="48.10931" lon="7.09539">
        <ele>1055</ele>
        <time>2019-04-12T16:32:24Z</time>
      </trkpt>
      <trkpt lat="48.1092" lon="7.09573">
        <ele>1051</ele>
        <time>2019-04-12T16:33:24Z</time>
      </trkpt>
      <trkpt lat="48.10929" lon="7.09604">
        <ele>1043</ele>
        <time>2019-04-12T16:34:24Z</time>
      </trkpt>
      <trkpt lat="48.10947" lon="7.09599">
        <ele>1038</ele>
        <time>2019-04-12T16:35:24Z</time>
      </trkpt>
      <trkpt lat="48.10954" lon="7.0963">
        <ele>1033</ele>
        <time>2019-04-12T16:36:24Z</time>
      </trkpt>
      <trkpt lat="48.10974" lon="7.09625">
        <ele>1028</ele>
        <time>2019-04-12T16:37:24Z</time>
      </trkpt>
      <trkpt lat="48.10979" lon="7.09659">
        <ele>1025</ele>
        <time>2019-04-12T16:38:24Z</time>
      </trkpt>
      <trkpt lat="48.11006" lon="7.09698">
        <ele>1017</ele>
        <time>2019-04-12T16:39:24Z</time>
      </trkpt>
      <trkpt lat="48.11031" lon="7.09724">
        <ele>1005</ele>
        <time>2019-04-12T16:40:24Z</time>
      </trkpt>
      <trkpt lat="48.11067" lon="7.09808">
        <ele>994</ele>
        <time>2019-04-12T16:41:24Z</time>
      </trkpt>
      <trkpt lat="48.11118" lon="7.09891">
        <ele>983</ele>
        <time>2019-04-12T16:42:24Z</time>
      </trkpt>
      <trkpt lat="48.11157" lon="7.09949">
        <ele>976</ele>
        <time>2019-04-12T16:43:24Z</time>
      </trkpt>
      <trkpt lat="48.11216" lon="7.10014">
        <ele>967</ele>
        <time>2019-04-12T16:44:24Z</time>
      </trkpt>
      <trkpt lat="48.11247" lon="7.10001">
        <ele>954</ele>
        <time>2019-04-12T16:45:24Z</time>
      </trkpt>
      <trkpt lat="48.11261" lon="7.10001">
        <ele>956</ele>
        <time>2019-04-12T16:46:24Z</time>
      </trkpt>
      <trkpt lat="48.11261" lon="7.1009">
        <ele>965</ele>
        <time>2019-04-12T16:47:24Z</time>
      </trkpt>
      <trkpt lat="48.11267" lon="7.10163">
        <ele>965</ele>
        <time>2019-04-12T16:48:24Z</time>
      </trkpt>
      <trkpt lat="48.11276" lon="7.10223">
        <ele>954</ele>
        <time>2019-04-12T16:49:24Z</time>
      </trkpt>
      <trkpt lat="48.11287" lon="7.10262">
        <ele>948</ele>
        <time>2019-04-12T16:50:24Z</time>
      </trkpt>
      <trkpt lat="48.1127" lon="7.10286">
        <ele>938</ele>
        <time>2019-04-12T16:51:24Z</time>
      </trkpt>
      <trkpt lat="48.11256" lon="7.10273">
        <ele>937</ele>
        <time>2019-04-12T16:52:24Z</time>
      </trkpt>
      <trkpt lat="48.11265" lon="7.10335">
        <ele>926</ele>
        <time>2019-04-12T16:53:24Z</time>
      </trkpt>
      <trkpt lat="48.11278" lon="7.10427">
        <ele>908</ele>
        <time>2019-04-12T16:54:24Z</time>
      </trkpt>
      <trkpt lat="48.11278" lon="7.10515">
        <ele>888</ele>
        <time>2019-04-12T16:55:24Z</time>
      </trkpt>
      <trkpt lat="48.11278" lon="7.1057">
        <ele>879</ele>
        <time>2019-04-12T16:56:24Z</time>
      </trkpt>
      <trkpt lat="48.11278" lon="7.1062">
        <ele>869</ele>
        <time>2019-04-12T16:57:24Z</time>
      </trkpt>
      <trkpt lat="48.1129" lon="7.10674">
        <ele>860</ele>
        <time>2019-04-12T16:58:24Z</time>
      </trkpt>
      <trkpt lat="48.11301" lon="7.10776">
        <ele>845</ele>
        <time>2019-04-12T16:59:24Z</time>
      </trkpt>
      <trkpt lat="48.11319" lon="7.10928">
        <ele>829</ele>
        <time>2019-04-12T17:00:24Z</time>
      </trkpt>
      <trkpt lat="48.11328" lon="7.11043">
        <ele>809</ele>
        <time>2019-04-12T17:01:24Z</time>
      </trkpt>
      <trkpt lat="48.11326" lon="7.11123">
        <ele>796</ele>
        <time>2019-04-12T17:02:24Z</time>
      </trkpt>
      <trkpt lat="48.11294" lon="7.11183">
        <ele>788</ele>
        <time>2019-04-12T17:03:24Z</time>
      </trkpt>
      <trkpt lat="48.11312" lon="7.11275">
        <ele>778</ele>
        <time>2019-04-12T17:04:24Z</time>
      </trkpt>
      <trkpt lat="48.11326" lon="7.11374">
        <ele>764</ele>
        <time>2019-04-12T17:05:24Z</time>
      </trkpt>
      <trkpt lat="48.11339" lon="7.11484">
        <ele>751</ele>
        <time>2019-04-12T17:06:24Z</time>
      </trkpt>
      <trkpt lat="48.11349" lon="7.11502">
        <ele>749</ele>
        <time>2019-04-12T17:07:24Z</time>
      </trkpt>
      <trkpt lat="48.1134" lon="7.11546">
        <ele>746</ele>
        <time>2019-04-12T17:08:24Z</time>
      </trkpt>
      <trkpt lat="48.1134" lon="7.11632">
        <ele>741</ele>
        <time>2019-04-12T17:09:24Z</time>
      </trkpt>
      <trkpt lat="48.11357" lon="7.11732">
        <ele>734</ele>
        <time>2019-04-12T17:10:24Z</time>
      </trkpt>
      <trkpt lat="48.11364" lon="7.11799">
        <ele>726</ele>
        <time>2019-04-12T17:11:24Z</time>
      </trkpt>
      <trkpt lat="48.1136" lon="7.11844">
        <ele>721</ele>
        <time>2019-04-12T17:12:24Z</time>
      </trkpt>
      <trkpt lat="48.11358" lon="7.11896">
        <ele>716</ele>
        <time>2019-04-12T17:13:24Z</time>
      </trkpt>
      <trkpt lat="48.11403" lon="7.11959">
        <ele>709</ele>
        <time>2019-04-12T17:14:24Z</time>
      </trkpt>
      <trkpt lat="48.11459" lon="7.12037">
        <ele>700</ele>
        <time>2019-04-12T17:15:24Z</time>
      </trkpt>
      <trkpt lat="48.11486" lon="7.12118">
        <ele>694</ele>
        <time>2019-04-12T17:16:24Z</time>
      </trkpt>
      <trkpt lat="48.1152" lon="7.12087">
        <ele>693</ele>
        <time>2019-04-12T17:17:24Z</time>
      </trkpt>
      <trkpt lat="48.11648" lon="7.12144">
        <ele>692</ele>
        <time>2019-04-12T17:18:24Z</time>
      </trkpt>
      <trkpt lat="48.11716" lon="7.12259">
        <ele>687</ele>
        <time>2019-04-12T17:19:24Z</time>
      </trkpt>
      <trkpt lat="48.11763" lon="7.1228">
        <ele>691</ele>
        <time>2019-04-12T17:20:24Z</time>
      </trkpt>
      <trkpt lat="48.11775" lon="7.1235">
        <ele>687</ele>
        <time>2019-04-12T17:21:24Z</time>
      </trkpt>
      <trkpt lat="48.11761" lon="7.1252">
        <ele>686</ele>
        <time>2019-04-12T17:22:24Z</time>
      </trkpt>
      <trkpt lat="48.117" lon="7.12551">
        <ele>669</ele>
        <time>2019-04-12T17:23:24Z</time>
      </trkpt>
      <trkpt lat="48.11693" lon="7.12567">
        <ele>667</ele>
        <time>2019-04-12T17:24:24Z</time>
      </trkpt>
      <trkpt lat="48.11709" lon="7.12601">
        <ele>668</ele>
        <time>2019-04-12T17:25:24Z</time>
      </trkpt>
      <trkpt lat="48.117" lon="7.12619">
        <ele>664</ele>
        <time>2019-04-12T17:26:24Z</time>
      </trkpt>
      <trkpt lat="48.11755" lon="7.12674">
        <ele>667</ele>
        <time>2019-04-12T17:27:24Z</time>
      </trkpt>
      <trkpt lat="48.11791" lon="7.12752">
        <ele>658</ele>
        <time>2019-04-12T17:28:24Z</time>
      </trkpt>
      <trkpt lat="48.1182" lon="7.12828">
        <ele>649</ele>
        <time>2019-04-12T17:29:24Z</time>
      </trkpt>
      <trkpt lat="48.11842" lon="7.12963">
        <ele>636</ele>
        <time>2019-04-12T17:30:24Z</time>
      </trkpt>
      <trkpt lat="48.11906" lon="7.13016">
        <ele>633</ele>
        <time>2019-04-12T17:31:24Z</time>
      </trkpt>
      <trkpt lat="48.1198" lon="7.13115">
        <ele>627</ele>
        <time>2019-04-12T17:32:24Z</time>
      </trkpt>
      <trkpt lat="48.12002" lon="7.13136">
        <ele>628</ele>
        <time>2019-04-12T17:33:24Z</time>
      </trkpt>
      <trkpt lat="48.12016" lon="7.13271">
        <ele>621</ele>
        <time>2019-04-12T17:34:24Z</time>
      </trkpt>
      <trkpt lat="48.12047" lon="7.13326">
        <ele>625</ele>
        <time>2019-04-12T17:35:24Z</time>
      </trkpt>
      <trkpt lat="48.12081" lon="7.13418">
        <ele>630</ele>
        <time>2019-04-12T17:36:24Z</time>
      </trkpt>
      <trkpt lat="48.12095" lon="7.13475">
        <ele>631</ele>
        <time>2019-04-12T17:37:24Z</time>
      </trkpt>
      <trkpt lat="48.12224" lon="7.13329">
        <ele>648</ele>
        <time>2019-04-12T17:38:24Z</time>
      </trkpt>
      <trkpt lat="48.12284" lon="7.13407">
        <ele>621</ele>
        <time>2019-04-12T17:39:24Z</time>
      </trkpt>
      <trkpt lat="48.12305" lon="7.1347">
        <ele>615</ele>
        <time>2019-04-12T17:40:24Z</time>
      </trkpt>
      <trkpt lat="48.12363" lon="7.13561">
        <ele>625</ele>
        <time>2019-04-12T17:41:24Z</time>
      </trkpt>
      <trkpt lat="48.12393" lon="7.13707">
        <ele>619</ele>
        <time>2019-04-12T17:42:24Z</time>
      </trkpt>
      <trkpt lat="48.12436" lon="7.13762">
        <ele>618</ele>
        <time>2019-04-12T17:43:24Z</time>
      </trkpt>
      <trkpt lat="48.12497" lon="7.13838">
        <ele>616</ele>
        <time>2019-04-12T17:44:24Z</time>
      </trkpt>
      <trkpt lat="48.12496" lon="7.13864">
        <ele>614</ele>
        <time>2019-04-12T17:45:24Z</time>
      </trkpt>
      <trkpt lat="48.12517" lon="7.13898">
        <ele>612</ele>
        <time>2019-04-12T17:46:24Z</time>
      </trkpt>
      <trkpt lat="48.12555" lon="7.13906">
        <ele>612</ele>
        <time>2019-04-12T17:47:24Z</time>
      </trkpt>
      <trkpt lat="48.12557" lon="7.14018">
        <ele>609</ele>
        <time>2019-04-12T17:48:24Z</time>
      </trkpt>
      <trkpt lat="48.12559" lon="7.14128">
        <ele>609</ele>
        <time>2019-04-12T17:49:24Z</time>
      </trkpt>
      <trkpt lat="48.12508" lon="7.14195">
        <ele>604</ele>
        <time>2019-04-12T17:50:24Z</time>
      </trkpt>
      <trkpt lat="48.12503" lon="7.14334">
        <ele>599</ele>
        <time>2019-04-12T17:51:24Z</time>
      </trkpt>
      <trkpt lat="48.12521" lon="7.14423">
        <ele>598</ele>
        <time>2019-04-12T17:52:24Z</time>
      </trkpt>
      <trkpt lat="48.1256" lon="7.14477">
        <ele>596</ele>
        <time>2019-04-12T17:53:24Z</time>
      </trkpt>
      <trkpt lat="48.1258" lon="7.14516">
        <ele>592</ele>
        <time>2019-04-12T17:54:24Z</time>
      </trkpt>
      <trkpt lat="48.1265" lon="7.14561">
        <ele>587</ele>
        <time>2019-04-12T17:55:24Z</time>
      </trkpt>
      <trkpt lat="48.12686" lon="7.14605">
        <ele>580</ele>
        <time>2019-04-12T17:56:24Z</time>
      </trkpt>
      <trkpt lat="48.12693" lon="7.1467">
        <ele>567</ele>
        <time>2019-04-12T17:57:24Z</time>
      </trkpt>
      <trkpt lat="48.12677" lon="7.14777">
        <ele>549</ele>
        <time>2019-04-12T17:58:24Z</time>
      </trkpt>
      <trkpt lat="48.12656" lon="7.14903">
        <ele>537</ele>
        <time>2019-04-12T17:59:24Z</time>
      </trkpt>
      <trkpt lat="48.12657" lon="7.14945">
        <ele>535</ele>
        <time>2019-04-12T18:00:24Z</time>
      </trkpt>
      <trkpt lat="48.12688" lon="7.14986">
        <ele>533</ele>
        <time>2019-04-12T18:01:24Z</time>
      </trkpt>
      <trkpt lat="48.12693" lon="7.1514">
        <ele>522</ele>
        <time>2019-04-12T18:02:24Z</time>
      </trkpt>
      <trkpt lat="48.12708" lon="7.15174">
        <ele>520</ele>
        <time>2019-04-12T18:03:24Z</time>
      </trkpt>
      <trkpt lat="48.12702" lon="7.15268">
        <ele>517</ele>
        <time>2019-04-12T18:04:24Z</time>
      </trkpt>
      <trkpt lat="48.12686" lon="7.15299">
        <ele>515</ele>
        <time>2019-04-12T18:05:24Z</time>
      </trkpt>
      <trkpt lat="48.12611" lon="7.15425">
        <ele>508</ele>
        <time>2019-04-12T18:06:24Z</time>
      </trkpt>
      <trkpt lat="48.12602" lon="7.15461">
        <ele>506</ele>
        <time>2019-04-12T18:07:24Z</time>
      </trkpt>
      <trkpt lat="48.12603" lon="7.15592">
        <ele>500</ele>
        <time>2019-04-12T18:08:24Z</time>
      </trkpt>
      <trkpt lat="48.126" lon="7.15714">
        <ele>499</ele>
        <time>2019-04-12T18:09:24Z</time>
      </trkpt>
      <trkpt lat="48.12607" lon="7.15845">
        <ele>496</ele>
        <time>2019-04-12T18:10:24Z</time>
      </trkpt>
      <trkpt lat="48.12621" lon="7.1596">
        <ele>492</ele>
        <time>2019-04-12T18:11:24Z</time>
      </trkpt>
      <trkpt lat="48.12612" lon="7.16038">
        <ele>493</ele>
        <time>2019-04-12T18:12:24Z</time>
      </trkpt>
      <trkpt lat="48.12593" lon="7.16103">
        <ele>494</ele>
        <time>2019-04-12T18:13:24Z</time>
      </trkpt>
      <trkpt lat="48.12573" lon="7.16229">
        <ele>489</ele>
        <time>2019-04-12T18:14:24Z</time>
      </trkpt>
      <trkpt lat="48.12566" lon="7.16307">
        <ele>486</ele>
        <time>2019-04-12T18:15:24Z</time>
      </trkpt>
      <trkpt lat="48.12578" lon="7.16351">
        <ele>482</ele>
        <time>2019-04-12T18:16:24Z</time>
      </trkpt>
      <trkpt lat="48.12589" lon="7.16388">
        <ele>477</ele>
        <time>2019-04-12T18:17:24Z</time>
      </trkpt>
    </trkseg>
  </trk>
</gpx>